Time;durP1;ratioP1;P1;durP2;ratioP2;P2;SDS_P1;SDS_P2;PMS_P1;PMS_P2;Temp;Humidity;BMP_temperature;BMP_pressure;BME280_temperature;BME280_humidity;BME280_pressure;Samples;Min_cycle;Max_cycle;Signal;HPM_P1;HPM_P2
2023/10/09 00:02:11;;;;;;;11.98;5.63;;;13.60;99.90;;;;;;5051291;28;20052;-51
2023/10/09 00:04:45;;;;;;;14.52;6.60;;;13.60;99.90;;;;;;5058100;28;20036;-48
2023/10/09 00:07:11;;;;;;;11.73;6.68;;;12.70;99.90;;;;;;5055366;28;20036;-50
2023/10/09 00:09:46;;;;;;;11.00;6.63;;;13.60;99.90;;;;;;5056194;28;20087;-51
2023/10/09 00:12:22;;;;;;;13.18;7.18;;;13.60;99.90;;;;;;5051147;28;20144;-49
2023/10/09 00:14:50;;;;;;;10.00;6.65;;;13.50;99.90;;;;;;5055071;28;20120;-48
2023/10/09 00:17:17;;;;;;;15.80;7.13;;;13.60;99.90;;;;;;5058291;28;20110;-50
2023/10/09 00:19:58;;;;;;;13.70;7.15;;;13.60;99.90;;;;;;5065654;28;20049;-50
2023/10/09 00:25:00;;;;;;;14.35;7.93;;;13.60;99.90;;;;;;5058016;28;20041;-48
2023/10/09 00:27:31;;;;;;;17.88;8.13;;;13.60;99.90;;;;;;5059742;28;20045;-48
2023/10/09 00:29:57;;;;;;;14.10;7.78;;;13.60;99.90;;;;;;5064902;28;20048;-48
2023/10/09 00:32:22;;;;;;;12.48;8.18;;;13.60;99.90;;;;;;5059533;28;20045;-49
2023/10/09 00:34:50;;;;;;;13.13;8.30;;;13.60;99.90;;;;;;5057946;28;20037;-47
2023/10/09 00:37:16;;;;;;;;;;;13.60;99.90;;;;;;5053696;28;20049;-47
2023/10/09 00:39:48;;;;;;;13.57;8.57;;;13.60;99.90;;;;;;5060720;28;20015;-48
2023/10/09 00:42:23;;;;;;;17.38;8.57;;;13.60;99.90;;;;;;5054363;28;20053;-49
2023/10/09 00:44:51;;;;;;;13.30;9.37;;;13.60;99.90;;;;;;5059849;28;20562;-49
2023/10/09 00:47:20;;;;;;;15.60;8.75;;;13.60;99.90;;;;;;5065365;28;20120;-47
2023/10/09 00:53:01;;;;;;;14.18;8.93;;;13.60;99.90;;;;;;5060182;28;20044;-47
2023/10/09 00:55:37;;;;;;;14.65;9.02;;;13.50;99.90;;;;;;5050759;28;20080;-49
2023/10/09 00:58:09;;;;;;;13.18;9.38;;;13.50;99.90;;;;;;5062791;28;20052;-48
2023/10/09 01:03:21;;;;;;;16.92;10.43;;;13.50;99.90;;;;;;5068627;28;20040;-47
2023/10/09 01:08:30;;;;;;;20.33;10.75;;;13.50;99.90;;;;;;5059465;28;20149;-47
2023/10/09 01:10:58;;;;;;;18.85;12.35;;;13.50;99.90;;;;;;5054357;28;20055;-47
2023/10/09 01:16:17;;;;;;;17.88;11.45;;;13.60;99.90;;;;;;5010949;28;20515;-47
2023/10/09 01:18:49;;;;;;;20.15;11.23;;;13.60;99.90;;;;;;5010281;28;20085;-47
2023/10/09 01:21:15;;;;;;;19.60;11.90;;;13.50;99.90;;;;;;5010727;28;20116;-47
2023/10/09 01:26:26;;;;;;;20.35;11.43;;;13.50;99.90;;;;;;5010947;28;20491;-48
2023/10/09 01:28:57;;;;;;;18.20;11.70;;;13.50;99.90;;;;;;4993102;28;20044;-48
2023/10/09 01:31:26;;;;;;;16.30;11.55;;;13.50;99.90;;;;;;5010436;28;20113;-47
2023/10/09 01:33:53;;;;;;;19.85;12.40;;;13.50;99.90;;;;;;5010649;28;20154;-48
2023/10/09 01:36:31;;;;;;;19.65;12.38;;;13.50;99.90;;;;;;5010914;28;20054;-48
2023/10/09 01:39:02;;;;;;;;;;;13.50;99.90;;;;;;5010437;28;20041;-47
2023/10/09 01:41:28;;;;;;;14.77;10.80;;;13.50;99.90;;;;;;5011058;28;19921;-48
2023/10/09 01:44:00;;;;;;;18.70;11.90;;;13.40;99.90;;;;;;5009341;28;20149;-47
2023/10/09 01:46:26;;;;;;;19.42;12.05;;;13.40;99.90;;;;;;5003864;28;20125;-47
2023/10/09 01:48:53;;;;;;;20.13;12.55;;;13.40;99.90;;;;;;5002742;28;20137;-47
2023/10/09 01:51:20;;;;;;;20.05;11.98;;;13.40;99.90;;;;;;5002741;28;20105;-50
2023/10/09 01:53:56;;;;;;;18.15;13.55;;;13.40;99.90;;;;;;5044582;28;20143;-49
2023/10/09 01:56:22;;;;;;;19.63;13.85;;;;;;;;;;5064274;28;20048;-48
2023/10/09 01:58:50;;;;;;;21.17;12.90;;;13.40;99.90;;;;;;5058415;28;20037;-49
2023/10/09 02:01:16;;;;;;;20.20;12.70;;;13.40;99.90;;;;;;5056080;28;20099;-49
2023/10/09 02:03:43;;;;;;;18.75;13.25;;;13.40;99.90;;;;;;5055448;28;20454;-47
2023/10/09 02:06:26;;;;;;;21.30;13.30;;;13.40;99.90;;;;;;5068290;28;20056;-47
2023/10/09 02:08:53;;;;;;;18.98;13.27;;;13.40;99.90;;;;;;5058754;28;20479;-50
2023/10/09 02:11:36;;;;;;;18.67;12.65;;;13.30;99.90;;;;;;5065127;28;20103;-48
2023/10/09 02:14:18;;;;;;;19.38;12.98;;;13.40;99.90;;;;;;5056135;28;20044;-48
2023/10/09 02:17:02;;;;;;;23.52;13.95;;;13.30;99.90;;;;;;5058323;28;20048;-49
2023/10/09 02:19:40;;;;;;;23.75;13.93;;;13.30;99.90;;;;;;5066198;28;20131;-48
2023/10/09 02:22:12;;;;;;;22.90;14.27;;;13.30;99.90;;;;;;5065677;28;20379;-47
2023/10/09 02:24:50;;;;;;;21.25;14.82;;;13.30;99.90;;;;;;5060803;28;20056;-47
2023/10/09 02:30:27;;;;;;;24.30;15.70;;;13.30;99.90;;;;;;5046263;28;20054;-47
2023/10/09 02:32:58;;;;;;;30.45;15.68;;;13.30;99.90;;;;;;5032046;28;20162;-47
2023/10/09 02:35:37;;;;;;;24.48;16.38;;;13.40;99.90;;;;;;5046598;28;20049;-47
2023/10/09 02:38:06;;;;;;;23.45;16.00;;;13.30;99.90;;;;;;5048491;28;20049;-47
2023/10/09 02:40:41;;;;;;;27.88;16.60;;;13.30;99.90;;;;;;5036547;28;20041;-47
2023/10/09 02:43:13;;;;;;;27.00;17.02;;;13.40;99.90;;;;;;5046775;28;20041;-48
2023/10/09 02:45:50;;;;;;;28.80;15.82;;;13.40;99.90;;;;;;5047972;28;20057;-49
2023/10/09 02:48:19;;;;;;;25.67;16.85;;;13.40;99.90;;;;;;5046148;28;20063;-48
2023/10/09 02:50:44;;;;;;;29.40;16.92;;;13.40;99.90;;;;;;5046930;28;20041;-48
2023/10/09 02:53:18;;;;;;;27.33;16.88;;;13.40;99.90;;;;;;5043440;28;20542;-47
2023/10/09 02:56:02;;;;;;;28.00;16.85;;;13.40;99.90;;;;;;5042073;28;20426;-47
2023/10/09 02:58:28;;;;;;;26.63;17.90;;;13.40;99.90;;;;;;5048146;28;20126;-47
2023/10/09 03:00:54;;;;;;;28.48;17.90;;;13.40;99.90;;;;;;5053105;28;20056;-50
2023/10/09 03:03:20;;;;;;;29.15;18.02;;;13.40;99.90;;;;;;5059194;28;20402;-48
2023/10/09 03:05:46;;;;;;;30.70;18.42;;;13.40;99.90;;;;;;5060496;28;20049;-47
2023/10/09 03:08:12;;;;;;;28.02;18.80;;;13.40;99.90;;;;;;5062955;28;20432;-47
2023/10/09 03:10:38;;;;;;;30.50;18.88;;;13.40;99.90;;;;;;5069095;28;20084;-48
2023/10/09 03:13:05;;;;;;;27.92;18.08;;;13.50;99.90;;;;;;5066727;28;20048;-47
2023/10/09 03:15:35;;;;;;;32.00;19.83;;;13.40;99.90;;;;;;5062319;28;20403;-48
2023/10/09 03:18:02;;;;;;;33.58;18.75;;;13.50;99.90;;;;;;5055247;28;20056;-50
2023/10/09 03:20:30;;;;;;;33.60;20.35;;;13.50;99.90;;;;;;5056374;28;20041;-47
2023/10/09 03:22:55;;;;;;;;;;;13.50;99.90;;;;;;5057105;28;20045;-48
2023/10/09 03:25:24;;;;;;;33.28;20.85;;;13.50;99.90;;;;;;5056471;28;20378;-50
2023/10/09 03:27:52;;;;;;;35.90;21.48;;;13.50;99.90;;;;;;5053544;28;20056;-49
2023/10/09 03:30:25;;;;;;;33.85;22.33;;;13.60;99.90;;;;;;5063083;28;20612;-47
2023/10/09 03:32:54;;;;;;;35.03;22.40;;;13.60;99.90;;;;;;5059692;28;20054;-48
2023/10/09 03:35:25;;;;;;;36.83;23.88;;;13.60;99.90;;;;;;5068722;28;20497;-47
2023/10/09 03:38:11;;;;;;;37.47;23.40;;;13.70;99.90;;;;;;5059682;28;20432;-47
2023/10/09 03:40:39;;;;;;;37.10;24.63;;;13.80;99.90;;;;;;5054234;28;20143;-48
2023/10/09 03:43:04;;;;;;;35.65;22.77;;;13.80;99.90;;;;;;5064546;28;20166;-48
2023/10/09 03:45:35;;;;;;;37.72;24.13;;;13.90;99.90;;;;;;5069693;28;20455;-48
2023/10/09 03:48:15;;;;;;;36.70;23.40;;;13.90;99.90;;;;;;5062886;28;20122;-47
2023/10/09 03:50:43;;;;;;;38.75;23.83;;;13.90;99.90;;;;;;5059255;28;20109;-48
2023/10/09 03:53:12;;;;;;;40.47;23.85;;;13.90;99.90;;;;;;5056860;28;20137;-48
2023/10/09 03:55:39;;;;;;;38.60;24.33;;;14.00;99.90;;;;;;5062562;28;20049;-47
2023/10/09 03:58:11;;;;;;;38.87;24.00;;;14.00;99.90;;;;;;5054260;28;20044;-47
2023/10/09 04:00:49;;;;;;;40.40;25.23;;;14.00;99.90;;;;;;5058771;28;20047;-49
2023/10/09 04:03:15;;;;;;;41.53;25.88;;;14.10;99.90;;;;;;5064061;28;20115;-47
2023/10/09 04:05:42;;;;;;;37.20;22.23;;;14.10;99.90;;;;;;5060021;28;20450;-47
2023/10/09 04:08:19;;;;;;;39.85;25.05;;;14.10;99.90;;;;;;5058070;28;20123;-47
2023/10/09 04:10:51;;;;;;;34.92;24.00;;;14.20;99.90;;;;;;5061508;28;20041;-49
2023/10/09 04:13:22;;;;;;;40.47;24.45;;;14.20;99.90;;;;;;5062391;28;20049;-50
2023/10/09 04:15:53;;;;;;;39.70;25.60;;;14.20;99.90;;;;;;5053446;28;20067;-49
2023/10/09 04:18:20;;;;;;;40.42;26.48;;;14.20;99.90;;;;;;5056338;28;20040;-48
2023/10/09 04:23:59;;;;;;;39.50;25.33;;;14.30;99.90;;;;;;5063743;28;20123;-47
2023/10/09 04:26:24;;;;;;;45.17;25.33;;;14.40;99.90;;;;;;5058710;28;20048;-48
2023/10/09 04:28:52;;;;;;;35.67;24.83;;;14.40;99.90;;;;;;5081987;28;20044;-47
2023/10/09 04:31:21;;;;;;;43.47;27.63;;;14.40;99.90;;;;;;5050186;28;20436;-47
2023/10/09 04:36:46;;;;;;;39.20;25.92;;;14.40;99.90;;;;;;5066908;28;20170;-47
2023/10/09 04:44:59;;;;;;;42.35;26.27;;;14.50;99.90;;;;;;5059179;28;20045;-47
2023/10/09 04:52:51;;;;;;;43.70;26.40;;;14.60;99.90;;;;;;5048882;28;20405;-47
2023/10/09 05:02:56;;;;;;;44.25;27.05;;;14.70;99.90;;;;;;5058528;28;20051;-49
2023/10/09 05:11:14;;;;;;;48.08;26.38;;;14.80;99.90;;;;;;5058569;28;20105;-50
2023/10/09 05:16:15;;;;;;;37.15;26.33;;;14.90;99.90;;;;;;5056616;28;20463;-49
2023/10/09 05:18:45;;;;;;;51.13;28.02;;;14.90;99.90;;;;;;5052902;28;20079;-49
2023/10/09 05:23:48;;;;;;;41.67;24.50;;;14.90;99.90;;;;;;5082632;28;20121;-48
2023/10/09 05:27:17;;;;;;;40.33;25.73;;;14.90;99.90;;;;;;5062884;28;20044;-48
2023/10/09 05:32:03;;;;;;;40.63;27.05;;;14.90;99.90;;;;;;5066075;28;20044;-47
2023/10/09 05:35:04;;;;;;;39.30;25.95;;;15.00;99.90;;;;;;5054378;28;20049;-48
2023/10/09 05:37:24;;;;;;;40.70;26.73;;;15.00;99.90;;;;;;5059904;28;20060;-49
2023/10/09 05:48:03;;;;;;;40.35;25.17;;;15.00;99.90;;;;;;5064997;28;20052;-49
2023/10/09 05:50:37;;;;;;;36.65;24.40;;;15.10;99.90;;;;;;5055920;28;20037;-49
2023/10/09 05:53:34;;;;;;;42.20;24.60;;;15.10;99.90;;;;;;5061605;28;20102;-51
2023/10/09 06:04:17;;;;;;;37.95;24.48;;;15.20;99.90;;;;;;5062151;28;20102;-50
2023/10/09 06:06:55;;;;;;;37.13;23.30;;;15.20;99.90;;;;;;5053810;28;20052;-48
2023/10/09 06:12:33;;;;;;;36.47;22.77;;;15.30;99.90;;;;;;5061958;28;20399;-51
2023/10/09 06:19:48;;;;;;;33.17;20.63;;;15.40;99.90;;;;;;5058399;28;20049;-49
2023/10/09 06:25:08;;;;;;;33.38;22.10;;;15.40;99.90;;;;;;5059366;28;20048;-50
2023/10/09 06:32:38;;;;;;;30.35;21.05;;;15.40;99.90;;;;;;5058291;28;20580;-48
2023/10/09 06:35:16;;;;;;;35.10;20.50;;;;;;;;;;5063709;28;20049;-51
2023/10/09 06:43:53;;;;;;;26.50;19.05;;;15.80;99.90;;;;;;5059788;28;20049;-51
2023/10/09 06:46:17;;;;;;;31.90;19.70;;;15.50;99.90;;;;;;5055399;28;20464;-49
2023/10/09 06:48:55;;;;;;;27.77;18.75;;;15.90;99.90;;;;;;5061886;28;20043;-48
2023/10/09 06:59:14;;;;;;;30.48;17.30;;;15.70;99.90;;;;;;5065723;28;20495;-51
2023/10/09 07:01:42;;;;;;;23.15;16.15;;;15.80;99.90;;;;;;5053506;28;20414;-48
2023/10/09 07:04:18;;;;;;;24.55;15.65;;;15.80;99.90;;;;;;5064109;28;20447;-48
2023/10/09 07:06:48;;;;;;;23.98;14.90;;;15.80;99.90;;;;;;5063010;28;20043;-48
2023/10/09 07:27:51;;;;;;;21.20;13.90;;;16.10;99.90;;;;;;5059162;28;20440;-48
2023/10/09 07:35:47;;;;;;;23.15;13.02;;;16.20;99.90;;;;;;5064748;28;20066;-49
2023/10/09 07:38:20;;;;;;;20.42;13.23;;;16.20;99.90;;;;;;5059289;28;20128;-48
2023/10/09 07:41:33;;;;;;;24.40;13.60;;;16.20;99.90;;;;;;5062646;28;20098;-50
2023/10/09 07:43:45;;;;;;;22.88;13.63;;;16.30;99.90;;;;;;5062351;28;20080;-49
2023/10/09 07:49:12;;;;;;;16.17;11.98;;;16.30;99.90;;;;;;5060520;28;20087;-50
2023/10/09 07:51:46;;;;;;;24.73;12.55;;;16.30;99.90;;;;;;5064617;28;20045;-51
2023/10/09 07:54:14;;;;;;;21.67;12.80;;;16.30;99.90;;;;;;5056215;28;20468;-51
2023/10/09 07:56:45;;;;;;;17.25;12.70;;;16.30;99.90;;;;;;5061703;28;20068;-48
2023/10/09 07:59:17;;;;;;;16.85;11.68;;;16.30;99.90;;;;;;5065701;28;20137;-50
2023/10/09 08:01:58;;;;;;;20.92;11.93;;;16.40;99.90;;;;;;5065341;28;20059;-49
2023/10/09 08:04:39;;;;;;;17.90;11.68;;;16.40;99.90;;;;;;5063814;28;20123;-48
2023/10/09 08:07:09;;;;;;;20.58;11.68;;;16.60;99.90;;;;;;5066238;28;20081;-48
2023/10/09 08:09:46;;;;;;;17.67;11.35;;;16.60;99.90;;;;;;5066958;28;20076;-51
2023/10/09 08:15:20;;;;;;;22.08;12.50;;;16.60;99.90;;;;;;5064345;28;20072;-50
2023/10/09 08:17:59;;;;;;;19.05;12.88;;;16.70;99.90;;;;;;5062259;28;20052;-51
2023/10/09 08:20:26;;;;;;;19.55;11.95;;;16.70;99.90;;;;;;5062085;28;20055;-49
2023/10/09 08:22:55;;;;;;;19.88;12.70;;;16.70;99.90;;;;;;5065147;28;20041;-49
2023/10/09 08:25:36;;;;;;;17.85;11.93;;;16.80;99.90;;;;;;5056424;28;20033;-50
2023/10/09 08:31:02;;;;;;;18.90;12.52;;;16.90;99.90;;;;;;5064434;28;20041;-51
2023/10/09 08:33:40;;;;;;;22.20;12.27;;;17.00;99.90;;;;;;5062648;28;20094;-50
2023/10/09 08:36:07;;;;;;;16.92;11.65;;;17.00;99.90;;;;;;5065277;28;20047;-50
2023/10/09 08:38:34;;;;;;;16.85;11.93;;;17.10;99.90;;;;;;5061200;28;20099;-49
2023/10/09 08:41:17;;;;;;;18.95;12.23;;;17.10;99.90;;;;;;5063990;28;20091;-48
2023/10/09 08:44:03;;;;;;;16.75;12.35;;;17.20;99.90;;;;;;5064308;28;20083;-48
2023/10/09 08:46:29;;;;;;;19.23;12.20;;;17.20;99.90;;;;;;5067236;28;20094;-49
2023/10/09 08:48:56;;;;;;;19.25;11.60;;;17.20;99.90;;;;;;5064473;28;20049;-49
2023/10/09 08:51:25;;;;;;;20.67;12.35;;;17.30;99.90;;;;;;5063512;28;20425;-49
2023/10/09 08:53:52;;;;;;;17.77;11.75;;;17.30;99.90;;;;;;5062532;28;20510;-47
2023/10/09 08:56:21;;;;;;;17.13;11.55;;;17.30;99.90;;;;;;5065172;28;20119;-48
2023/10/09 08:58:55;;;;;;;17.90;11.20;;;17.30;99.90;;;;;;5061023;28;20069;-50
2023/10/09 09:01:21;;;;;;;15.55;11.15;;;17.40;99.90;;;;;;5064656;28;20093;-50
2023/10/09 09:03:50;;;;;;;17.38;11.80;;;17.40;99.90;;;;;;5061767;28;20047;-51
2023/10/09 09:06:17;;;;;;;17.40;10.68;;;17.40;99.90;;;;;;5065111;28;20036;-49
2023/10/09 09:08:44;;;;;;;19.10;11.25;;;17.50;99.90;;;;;;5055911;28;20479;-50
2023/10/09 09:11:24;;;;;;;;;;;17.50;99.90;;;;;;5061815;28;20045;-50
2023/10/09 09:14:03;;;;;;;17.70;10.30;;;17.60;99.90;;;;;;5060592;28;20041;-50
2023/10/09 09:16:30;;;;;;;17.88;10.68;;;17.70;99.90;;;;;;5058864;28;20527;-50
2023/10/09 09:19:00;;;;;;;15.07;9.18;;;17.70;99.90;;;;;;5068827;28;20055;-49
2023/10/09 09:21:37;;;;;;;16.65;9.73;;;17.70;99.90;;;;;;5067189;28;20060;-48
2023/10/09 09:24:06;;;;;;;15.45;9.80;;;17.70;99.90;;;;;;5067639;28;20570;-47
2023/10/09 09:26:44;;;;;;;19.27;10.45;;;17.70;99.90;;;;;;5075084;28;20063;-48
2023/10/09 09:29:11;;;;;;;18.60;9.52;;;17.60;99.90;;;;;;5067802;28;20043;-48
2023/10/09 09:31:41;;;;;;;18.60;10.43;;;17.60;99.90;;;;;;5055086;28;20048;-48
2023/10/09 09:34:16;;;;;;;17.38;9.50;;;17.50;99.90;;;;;;5054884;28;20052;-48
2023/10/09 09:36:53;;;;;;;17.35;9.77;;;17.60;99.90;;;;;;5074505;28;20055;-49
2023/10/09 09:39:28;;;;;;;20.10;9.20;;;17.50;99.90;;;;;;5058950;28;20068;-48
2023/10/09 09:42:03;;;;;;;22.27;10.45;;;17.50;99.90;;;;;;5054688;28;20577;-49
2023/10/09 09:44:33;;;;;;;18.52;9.10;;;17.40;99.90;;;;;;5059218;28;20072;-47
2023/10/09 09:47:00;;;;;;;18.50;9.43;;;17.30;99.90;;;;;;5064759;28;20070;-47
2023/10/09 09:49:31;;;;;;;14.88;9.05;;;17.30;99.90;;;;;;5074736;28;20124;-48
2023/10/09 09:52:09;;;;;;;17.73;9.13;;;17.40;99.90;;;;;;5075873;28;20040;-48
2023/10/09 09:54:39;;;;;;;18.73;10.13;;;17.30;99.90;;;;;;5064044;28;20580;-48
2023/10/09 09:57:10;;;;;;;19.85;10.13;;;17.30;99.90;;;;;;5054918;28;20047;-49
2023/10/09 09:59:54;;;;;;;19.00;9.57;;;17.30;99.90;;;;;;5054569;28;20086;-47
2023/10/09 10:02:33;;;;;;;14.35;9.30;;;17.40;99.90;;;;;;5054394;28;20132;-48
2023/10/09 10:05:03;;;;;;;20.50;9.57;;;17.40;99.90;;;;;;5054404;28;20045;-49
2023/10/09 10:07:38;;;;;;;21.27;10.02;;;17.30;99.90;;;;;;5054467;28;20053;-47
2023/10/09 10:10:57;;;;;;;16.80;9.05;;;17.30;99.90;;;;;;5069031;28;20041;-47
2023/10/09 10:13:41;;;;;;;18.88;9.25;;;17.30;99.90;;;;;;5046439;28;20171;-47
2023/10/09 10:16:20;;;;;;;17.38;9.23;;;17.30;99.90;;;;;;5052750;28;20057;-47
2023/10/09 10:21:41;;;;;;;19.23;9.23;;;17.40;99.90;;;;;;5055453;28;20053;-47
2023/10/09 10:24:32;;;;;;;16.13;9.18;;;17.40;99.90;;;;;;5070407;28;20120;-47
2023/10/09 10:27:11;;;;;;;14.60;9.48;;;17.50;99.90;;;;;;5073984;28;20049;-47
2023/10/09 10:29:38;;;;;;;18.13;9.05;;;17.90;99.90;;;;;;5073494;28;20048;-48
2023/10/09 10:32:08;;;;;;;17.38;9.15;;;17.70;99.90;;;;;;5064962;28;20522;-48
2023/10/09 10:34:55;;;;;;;18.50;8.43;;;18.00;99.90;;;;;;5054295;28;20427;-48
2023/10/09 10:37:38;;;;;;;16.58;9.18;;;18.40;99.90;;;;;;5056444;28;20418;-49
2023/10/09 10:40:13;;;;;;;15.90;8.60;;;18.30;99.90;;;;;;5059048;28;20044;-49
2023/10/09 10:45:37;;;;;;;16.63;7.93;;;18.60;99.90;;;;;;5053298;28;20057;-47
2023/10/09 10:48:09;;;;;;;14.60;6.90;;;18.60;99.90;;;;;;5066262;28;20052;-47
2023/10/09 10:50:35;;;;;;;14.15;7.03;;;18.80;99.90;;;;;;5068874;28;20044;-50
2023/10/09 10:53:34;;;;;;;13.07;6.97;;;19.00;99.90;;;;;;5064184;28;20060;-50
2023/10/09 10:58:53;;;;;;;14.55;7.65;;;18.90;99.90;;;;;;5053597;28;20060;-48
2023/10/09 11:01:22;;;;;;;13.75;6.65;;;19.00;99.90;;;;;;5053594;28;20044;-50
2023/10/09 11:06:37;;;;;;;17.52;7.70;;;19.10;99.90;;;;;;5053591;28;20041;-48
2023/10/09 11:09:23;;;;;;;16.15;7.40;;;19.00;99.90;;;;;;5053510;28;20053;-48
2023/10/09 11:12:11;;;;;;;15.40;7.20;;;19.00;99.90;;;;;;5060164;28;20498;-49
2023/10/09 11:14:46;;;;;;;11.88;6.78;;;18.90;99.90;;;;;;5051605;28;20089;-50
2023/10/09 11:17:25;;;;;;;13.00;7.05;;;18.80;99.90;;;;;;5053201;28;20388;-48
2023/10/09 11:19:52;;;;;;;11.82;6.57;;;18.80;99.90;;;;;;5053375;28;20091;-50
2023/10/09 11:22:28;;;;;;;14.90;6.57;;;18.90;99.90;;;;;;5053218;28;20048;-48
2023/10/09 11:25:13;;;;;;;14.82;6.70;;;18.90;99.90;;;;;;5052983;28;20048;-48
2023/10/09 11:27:50;;;;;;;15.27;6.97;;;19.00;99.90;;;;;;5054253;28;20102;-51
2023/10/09 11:30:26;;;;;;;12.50;7.03;;;18.90;99.90;;;;;;5052593;28;20041;-48
2023/10/09 11:33:04;;;;;;;14.57;6.70;;;18.80;99.90;;;;;;5057217;28;20048;-47
2023/10/09 11:35:34;;;;;;;15.48;6.95;;;18.90;99.90;;;;;;5059624;28;20535;-48
2023/10/09 11:38:00;;;;;;;14.85;6.55;;;18.70;99.90;;;;;;5058652;28;20043;-47
2023/10/09 11:40:49;;;;;;;16.88;6.70;;;18.80;99.90;;;;;;5069552;28;21192;-47
2023/10/09 11:43:15;;;;;;;13.60;6.30;;;19.00;99.90;;;;;;5060081;28;20045;-47
2023/10/09 11:45:54;;;;;;;12.00;6.53;;;19.20;99.90;;;;;;5064344;28;20399;-47
2023/10/09 11:48:33;;;;;;;14.38;6.28;;;19.30;99.90;;;;;;5070624;28;20056;-49
2023/10/09 11:55:53;;;;;;;14.48;6.25;;;19.20;99.90;;;;;;5067433;28;20044;-48
2023/10/09 11:58:23;;;;;;;19.08;7.00;;;19.20;99.90;;;;;;5057817;28;20066;-48
2023/10/09 12:01:03;;;;;;;16.70;6.40;;;19.20;99.90;;;;;;5067077;28;20087;-48
2023/10/09 12:03:30;;;;;;;12.73;6.35;;;19.20;99.90;;;;;;5069262;28;20051;-51
2023/10/09 12:06:05;;;;;;;14.82;6.82;;;19.30;99.90;;;;;;5059828;28;20048;-50
2023/10/09 12:08:32;;;;;;;13.60;6.18;;;19.50;99.90;;;;;;5066393;28;20041;-48
2023/10/09 12:10:58;;;;;;;11.50;6.30;;;19.30;99.90;;;;;;5067559;28;20063;-47
2023/10/09 12:13:24;;;;;;;10.52;5.80;;;19.30;99.90;;;;;;5058067;28;20447;-50
2023/10/09 12:15:52;;;;;;;13.05;6.13;;;19.20;99.90;;;;;;5058695;28;20117;-51
2023/10/09 12:18:19;;;;;;;13.20;6.00;;;19.10;99.90;;;;;;5065587;28;20417;-48
2023/10/09 12:21:02;;;;;;;12.73;5.72;;;19.00;99.90;;;;;;5071311;28;20056;-50
2023/10/09 12:23:43;;;;;;;13.25;6.10;;;18.80;99.90;;;;;;5068178;28;20040;-50
2023/10/09 12:26:14;;;;;;;11.43;5.80;;;19.00;99.90;;;;;;5063701;28;20509;-50
2023/10/09 12:28:45;;;;;;;13.65;5.93;;;18.90;99.90;;;;;;5069497;28;20435;-51
2023/10/09 12:31:14;;;;;;;10.27;6.05;;;18.90;99.90;;;;;;5070327;28;20529;-48
2023/10/09 12:33:41;;;;;;;12.45;6.43;;;18.90;99.90;;;;;;5063728;28;20070;-50
2023/10/09 12:36:17;;;;;;;9.95;5.72;;;18.90;99.90;;;;;;5067547;28;20032;-48
2023/10/09 12:38:46;;;;;;;15.02;6.00;;;19.00;99.90;;;;;;5064701;28;20391;-50
2023/10/09 12:41:28;;;;;;;11.30;5.95;;;18.90;99.90;;;;;;5070966;28;20040;-48
2023/10/09 12:43:54;;;;;;;10.68;5.28;;;18.90;99.90;;;;;;5070842;28;20060;-48
2023/10/09 12:46:25;;;;;;;11.38;5.25;;;19.00;99.90;;;;;;5070829;28;20110;-48
2023/10/09 12:48:54;;;;;;;9.85;5.90;;;19.00;99.90;;;;;;5070721;28;20105;-49
2023/10/09 12:51:20;;;;;;;13.27;5.22;;;18.90;99.90;;;;;;5058850;28;20514;-48
2023/10/09 12:53:56;;;;;;;10.95;5.05;;;18.90;99.90;;;;;;5069795;28;20115;-48
2023/10/09 12:56:38;;;;;;;10.90;5.35;;;18.80;99.90;;;;;;5073437;28;20032;-49
2023/10/09 12:59:07;;;;;;;11.30;5.38;;;18.90;99.90;;;;;;5065829;28;20053;-48
2023/10/09 13:01:42;;;;;;;9.68;5.35;;;19.00;99.90;;;;;;5069799;28;20040;-48
2023/10/09 13:04:12;;;;;;;10.38;5.00;;;18.80;99.90;;;;;;5091681;28;20036;-48
2023/10/09 13:06:43;;;;;;;11.25;5.13;;;18.90;99.90;;;;;;5072367;28;20050;-48
2023/10/09 13:09:15;;;;;;;10.77;4.72;;;19.20;99.90;;;;;;5062406;28;20036;-48
2023/10/09 13:11:41;;;;;;;7.00;4.07;;;19.70;99.90;;;;;;5070076;28;20086;-48
2023/10/09 13:14:21;;;;;;;11.38;4.40;;;19.80;99.90;;;;;;5075818;28;20046;-50
2023/10/09 13:16:50;;;;;;;7.90;3.90;;;19.90;99.90;;;;;;5070704;28;20048;-49
2023/10/09 13:19:17;;;;;;;8.00;4.25;;;19.90;99.90;;;;;;5063556;28;20049;-49
2023/10/09 13:21:43;;;;;;;9.00;4.20;;;20.00;99.90;;;;;;5059775;28;20456;-50
2023/10/09 13:24:15;;;;;;;9.85;4.30;;;19.90;99.90;;;;;;5071839;28;20453;-49
2023/10/09 13:26:46;;;;;;;8.10;4.50;;;19.80;99.90;;;;;;5063365;28;20506;-51
2023/10/09 13:29:12;;;;;;;6.57;4.20;;;19.80;99.90;;;;;;5074535;28;20099;-49
2023/10/09 13:31:46;;;;;;;13.83;4.77;;;19.80;99.90;;;;;;5061605;28;20135;-51
2023/10/09 13:34:15;;;;;;;11.63;4.20;;;19.80;99.90;;;;;;5075138;28;20044;-48
2023/10/09 13:36:49;;;;;;;7.65;4.10;;;19.80;99.90;;;;;;5062358;28;20048;-47
2023/10/09 13:39:25;;;;;;;9.27;4.53;;;19.80;99.90;;;;;;5075795;28;20127;-49
2023/10/09 13:41:58;;;;;;;9.13;3.78;;;19.70;99.90;;;;;;5064546;28;20033;-51
2023/10/09 13:44:28;;;;;;;11.30;4.30;;;19.70;99.90;;;;;;5076215;28;20044;-50
2023/10/09 13:46:58;;;;;;;11.27;4.30;;;19.70;99.90;;;;;;5075700;28;20040;-50
2023/10/09 13:49:29;;;;;;;9.80;3.97;;;19.70;99.90;;;;;;5075135;28;20116;-51
2023/10/09 13:51:56;;;;;;;9.05;4.18;;;19.70;99.90;;;;;;5076040;28;20036;-49
2023/10/09 13:54:29;;;;;;;10.60;3.97;;;19.60;99.90;;;;;;5076191;28;20448;-48
2023/10/09 13:56:55;;;;;;;8.43;3.72;;;19.60;99.90;;;;;;5077808;28;20044;-50
2023/10/09 13:59:23;;;;;;;11.02;4.32;;;19.60;99.90;;;;;;5076461;28;20426;-51
2023/10/09 14:01:50;;;;;;;10.00;3.70;;;19.60;99.90;;;;;;5074936;28;20044;-51
2023/10/09 14:04:19;;;;;;;9.60;4.22;;;19.60;99.90;;;;;;5072939;28;20033;-48
2023/10/09 14:06:46;;;;;;;7.47;4.05;;;19.60;99.90;;;;;;5070607;28;20409;-50
2023/10/09 14:09:27;;;;;;;6.93;4.03;;;19.70;99.90;;;;;;5071624;28;20052;-51
2023/10/09 14:12:05;;;;;;;11.70;3.50;;;19.70;99.90;;;;;;5064391;28;20041;-50
2023/10/09 14:14:39;;;;;;;7.32;2.97;;;19.60;99.90;;;;;;5069677;28;20482;-48
2023/10/09 14:17:11;;;;;;;7.78;3.33;;;19.50;99.90;;;;;;5073183;28;20478;-48
2023/10/09 14:19:41;;;;;;;7.18;2.78;;;19.50;99.90;;;;;;5059487;28;20380;-47
2023/10/09 14:22:07;;;;;;;5.97;2.83;;;19.40;99.90;;;;;;5062771;28;20040;-47
2023/10/09 14:24:34;;;;;;;8.05;3.03;;;19.40;99.90;;;;;;5072310;28;20040;-47
2023/10/09 14:27:04;;;;;;;6.20;3.00;;;19.40;99.90;;;;;;5072851;28;20040;-48
2023/10/09 14:29:31;;;;;;;4.85;2.50;;;19.30;99.90;;;;;;5072523;28;20460;-49
2023/10/09 14:32:00;;;;;;;8.05;2.97;;;19.40;99.90;;;;;;5072589;28;20040;-48
2023/10/09 14:34:32;;;;;;;9.30;3.60;;;19.40;99.90;;;;;;5059905;28;20102;-48
2023/10/09 14:37:00;;;;;;;10.38;3.90;;;19.30;99.90;;;;;;5071233;28;20051;-48
2023/10/09 14:39:27;;;;;;;9.90;4.15;;;19.20;99.90;;;;;;5065802;28;20133;-48
2023/10/09 14:41:54;;;;;;;10.90;3.87;;;19.20;99.90;;;;;;5072236;28;20045;-48
2023/10/09 14:44:20;;;;;;;8.90;4.15;;;19.20;99.90;;;;;;5064560;28;20360;-49
2023/10/09 14:46:46;;;;;;;9.77;3.63;;;19.30;99.90;;;;;;5070562;28;20496;-51
2023/10/09 14:49:14;;;;;;;9.43;3.88;;;19.30;99.90;;;;;;5069530;28;20050;-48
2023/10/09 14:51:39;;;;;;;;;;;19.20;99.90;;;;;;5059517;28;20168;-51
2023/10/09 14:54:07;;;;;;;9.73;3.67;;;19.20;99.90;;;;;;5067362;28;20011;-48
2023/10/09 14:56:36;;;;;;;9.63;3.35;;;19.20;99.90;;;;;;5067723;28;20091;-51
2023/10/09 14:59:02;;;;;;;7.72;3.30;;;19.10;99.90;;;;;;5069675;28;20099;-51
2023/10/09 15:01:31;;;;;;;13.23;3.60;;;19.10;99.90;;;;;;5058228;28;20041;-49
2023/10/09 15:04:00;;;;;;;8.10;3.20;;;19.00;99.90;;;;;;5070459;28;20028;-47
2023/10/09 15:06:30;;;;;;;6.68;3.25;;;18.90;99.90;;;;;;5053338;28;20052;-49
2023/10/09 15:09:07;;;;;;;8.23;3.53;;;18.70;99.90;;;;;;5054212;28;20115;-50
2023/10/09 15:11:34;;;;;;;8.50;3.67;;;18.70;99.90;;;;;;5053360;28;20037;-51
2023/10/09 15:13:59;;;;;;;7.70;3.25;;;18.60;99.90;;;;;;5060783;28;20135;-48
2023/10/09 15:16:30;;;;;;;9.35;3.78;;;18.50;99.90;;;;;;5059384;28;20045;-48
2023/10/09 15:19:02;;;;;;;7.88;3.53;;;18.50;99.90;;;;;;5051539;28;20049;-47
2023/10/09 15:21:28;;;;;;;8.23;3.67;;;18.40;99.90;;;;;;5066273;28;20498;-49
2023/10/09 15:23:58;;;;;;;9.27;3.42;;;;;;;;;;5063226;28;20395;-47
2023/10/09 15:26:24;;;;;;;8.25;3.17;;;18.40;99.90;;;;;;5060719;28;20047;-48
2023/10/09 15:28:53;;;;;;;7.40;3.30;;;18.40;99.90;;;;;;5071237;28;20045;-51
2023/10/09 15:31:21;;;;;;;9.02;3.35;;;18.40;99.90;;;;;;5061014;28;20052;-49
2023/10/09 15:33:51;;;;;;;8.88;3.55;;;18.40;99.90;;;;;;5059153;28;20040;-50